createdAt,value
2023-01-29T00:00:17.260Z,2.52
2023-01-29T00:01:52.299Z,2.52
2023-01-29T00:03:25.545Z,2.57
2023-01-29T00:05:10.008Z,2.56
2023-01-29T00:06:50.107Z,2.52
2023-01-29T00:08:22.376Z,2.50
2023-01-29T00:09:55.622Z,2.49
2023-01-29T00:11:28.948Z,2.47
2023-01-29T00:13:02.310Z,2.49
2023-01-29T00:14:35.632Z,2.47
2023-01-29T00:16:09.086Z,2.48
2023-01-29T00:17:43.586Z,2.47
2023-01-29T00:19:17.713Z,2.53
2023-01-29T00:20:50.224Z,2.52
2023-01-29T00:22:23.496Z,2.55
2023-01-29T00:23:56.678Z,2.57
2023-01-29T00:25:30.175Z,2.59
2023-01-29T00:27:02.367Z,2.62
2023-01-29T00:28:36.417Z,2.61
2023-01-29T00:30:13.387Z,2.63
2023-01-29T00:31:46.865Z,2.59
2023-01-29T00:33:21.956Z,2.60
2023-01-29T00:34:55.117Z,2.62
2023-01-29T00:36:28.483Z,2.61
2023-01-29T00:38:01.681Z,2.54
2023-01-29T00:39:47.423Z,2.53
2023-01-29T00:41:52.980Z,2.58
2023-01-29T00:43:43.581Z,2.54
2023-01-29T00:45:17.013Z,2.52
2023-01-29T00:46:51.853Z,2.52
2023-01-29T00:48:26.608Z,2.50
2023-01-29T00:49:58.984Z,2.48
2023-01-29T00:51:33.742Z,2.49
2023-01-29T00:53:06.845Z,2.49
2023-01-29T00:54:40.007Z,2.46
2023-01-29T00:56:13.342Z,2.44
2023-01-29T00:57:46.672Z,2.43
2023-01-29T00:59:19.945Z,2.42
2023-01-29T01:00:53.548Z,2.44
2023-01-29T01:02:45.183Z,2.44
2023-01-29T01:04:18.899Z,2.47
2023-01-29T01:06:04.413Z,2.49
2023-01-29T01:07:37.016Z,2.51
2023-01-29T01:09:33.817Z,2.47
2023-01-29T01:11:08.621Z,2.42
2023-01-29T01:12:40.750Z,2.42
2023-01-29T01:14:13.879Z,2.42
2023-01-29T01:15:48.898Z,2.42
2023-01-29T01:17:22.064Z,2.38
2023-01-29T01:18:55.201Z,2.40
2023-01-29T01:20:32.080Z,2.41
2023-01-29T01:22:05.165Z,2.44
2023-01-29T01:23:38.574Z,2.48
2023-01-29T01:25:10.920Z,2.48
2023-01-29T01:26:44.215Z,2.56
2023-01-29T01:28:17.461Z,2.59
2023-01-29T01:29:50.503Z,2.63
2023-01-29T01:31:23.724Z,2.63
2023-01-29T01:32:56.915Z,2.62
2023-01-29T01:34:29.071Z,2.61
2023-01-29T01:36:04.329Z,2.61
2023-01-29T01:37:38.894Z,2.60
2023-01-29T01:39:12.018Z,2.59
2023-01-29T01:40:47.246Z,2.53
2023-01-29T01:42:20.605Z,2.52
2023-01-29T01:43:57.500Z,2.50
2023-01-29T01:45:32.727Z,2.49
2023-01-29T01:47:05.140Z,2.49
2023-01-29T01:48:38.769Z,2.47
2023-01-29T01:50:16.922Z,2.46
2023-01-29T01:51:53.757Z,2.43
2023-01-29T01:53:30.869Z,2.40
2023-01-29T01:55:05.757Z,2.42
2023-01-29T01:56:45.163Z,2.40
2023-01-29T01:58:26.045Z,2.44
2023-01-29T02:00:10.191Z,2.46
2023-01-29T02:01:55.466Z,2.47
2023-01-29T02:03:50.301Z,2.47
2023-01-29T02:05:41.613Z,2.43
2023-01-29T02:07:34.498Z,2.36
2023-01-29T02:09:30.377Z,2.30
2023-01-29T02:11:03.676Z,2.25
2023-01-29T02:12:38.305Z,2.32
2023-01-29T02:14:12.669Z,2.28
2023-01-29T02:15:48.835Z,2.30
2023-01-29T02:17:22.192Z,2.30
2023-01-29T02:18:56.481Z,2.35
2023-01-29T02:20:33.583Z,2.39
2023-01-29T02:22:30.813Z,2.39
2023-01-29T02:24:22.835Z,2.34
2023-01-29T02:26:33.427Z,2.33
2023-01-29T02:28:22.091Z,2.31
2023-01-29T02:30:03.312Z,2.37
2023-01-29T02:31:42.297Z,2.40
2023-01-29T02:33:23.116Z,2.45
2023-01-29T02:35:24.610Z,2.49
2023-01-29T02:37:04.243Z,2.47
2023-01-29T02:38:44.260Z,2.47
2023-01-29T02:40:30.126Z,2.50
2023-01-29T02:42:12.812Z,2.49
2023-01-29T02:43:49.404Z,2.51
2023-01-29T02:45:29.870Z,2.52
2023-01-29T02:47:10.902Z,2.49
2023-01-29T02:48:49.763Z,2.54
2023-01-29T02:50:32.581Z,2.52
2023-01-29T02:52:14.587Z,2.48
2023-01-29T02:53:54.727Z,2.45
2023-01-29T02:55:34.767Z,2.47
2023-01-29T02:57:16.352Z,2.47
2023-01-29T02:58:55.175Z,2.45
2023-01-29T03:00:35.124Z,2.45
2023-01-29T03:02:12.132Z,2.40
2023-01-29T03:03:50.658Z,2.39
2023-01-29T03:05:32.285Z,2.43
2023-01-29T03:07:10.767Z,2.43
2023-01-29T03:08:50.158Z,2.46
2023-01-29T03:10:31.071Z,2.49
2023-01-29T03:12:20.177Z,2.52
2023-01-29T03:14:01.084Z,2.53
2023-01-29T03:15:42.518Z,2.50
2023-01-29T03:17:38.659Z,2.50
2023-01-29T03:19:16.317Z,2.51
2023-01-29T03:20:54.782Z,2.53
2023-01-29T03:22:27.978Z,2.58
2023-01-29T03:24:19.475Z,2.62
2023-01-29T03:26:15.479Z,2.65
2023-01-29T03:28:10.726Z,2.67
2023-01-29T03:30:07.673Z,2.67
2023-01-29T03:32:07.464Z,2.65
2023-01-29T03:33:47.178Z,2.64
2023-01-29T03:35:36.865Z,2.63
2023-01-29T03:37:18.893Z,2.63
2023-01-29T03:38:52.564Z,2.67
2023-01-29T03:40:28.974Z,2.68
2023-01-29T03:42:08.971Z,2.72
2023-01-29T03:43:52.241Z,2.75
2023-01-29T03:45:42.743Z,2.78
2023-01-29T03:47:20.845Z,2.81
2023-01-29T03:49:00.625Z,2.81
2023-01-29T03:50:40.022Z,2.84
2023-01-29T03:52:21.003Z,2.87
2023-01-29T03:54:09.872Z,2.87
2023-01-29T03:55:54.361Z,2.88
2023-01-29T03:57:35.536Z,2.91
2023-01-29T03:59:22.428Z,2.91
2023-01-29T04:01:18.312Z,2.91
2023-01-29T04:02:59.539Z,2.90
2023-01-29T04:04:36.637Z,2.89
2023-01-29T04:06:14.833Z,2.84
2023-01-29T04:08:03.755Z,2.86
2023-01-29T04:09:43.795Z,2.83
2023-01-29T04:11:21.930Z,2.85
2023-01-29T04:12:59.867Z,2.84
2023-01-29T04:14:33.972Z,2.83
2023-01-29T04:16:13.973Z,2.88
2023-01-29T04:18:00.683Z,2.83
2023-01-29T04:19:44.064Z,2.88
2023-01-29T04:21:18.648Z,2.89
2023-01-29T04:22:53.258Z,2.87
2023-01-29T04:24:25.716Z,2.85
2023-01-29T04:26:32.183Z,2.85
2023-01-29T04:28:17.005Z,2.85
2023-01-29T04:30:04.545Z,2.87
2023-01-29T04:31:50.594Z,2.86
2023-01-29T04:33:35.670Z,2.87
2023-01-29T04:35:19.180Z,2.84
2023-01-29T04:37:04.021Z,2.83
2023-01-29T04:38:48.718Z,2.86
2023-01-29T04:40:26.699Z,2.86
2023-01-29T04:42:12.077Z,2.82
2023-01-29T04:43:52.836Z,2.80
2023-01-29T04:45:36.684Z,2.81
2023-01-29T04:47:20.961Z,2.81
2023-01-29T04:49:06.241Z,2.80
2023-01-29T04:50:42.930Z,2.81
2023-01-29T04:52:22.702Z,2.84
2023-01-29T04:54:03.531Z,2.84
2023-01-29T04:55:41.813Z,2.85
2023-01-29T04:57:23.338Z,2.85
2023-01-29T04:59:01.222Z,2.87
2023-01-29T05:00:38.330Z,2.86
2023-01-29T05:02:13.578Z,2.82
2023-01-29T05:03:51.721Z,2.81
2023-01-29T05:05:26.269Z,2.81
2023-01-29T05:07:01.623Z,2.84
2023-01-29T05:08:37.659Z,2.83
2023-01-29T05:10:12.217Z,2.84
2023-01-29T05:11:48.630Z,2.86
2023-01-29T05:13:24.560Z,2.85
2023-01-29T05:15:02.105Z,2.77
2023-01-29T05:16:42.217Z,2.73
2023-01-29T05:18:15.447Z,2.66
2023-01-29T05:19:49.257Z,2.58
2023-01-29T05:21:25.084Z,2.63
2023-01-29T05:22:57.184Z,2.66
2023-01-29T05:24:30.404Z,2.69
2023-01-29T05:26:04.016Z,2.70
2023-01-29T05:27:55.510Z,2.72
2023-01-29T05:29:27.849Z,2.67
2023-01-29T05:31:01.166Z,2.65
2023-01-29T05:32:34.418Z,2.67
2023-01-29T05:34:07.545Z,2.69
2023-01-29T05:35:39.905Z,2.69
2023-01-29T05:37:14.357Z,2.70
2023-01-29T05:38:47.523Z,2.72
2023-01-29T05:40:20.729Z,2.72
2023-01-29T05:41:53.830Z,2.73
2023-01-29T05:43:27.389Z,2.69
2023-01-29T05:44:59.498Z,2.72
2023-01-29T05:46:32.707Z,2.71
2023-01-29T05:48:06.254Z,2.73
2023-01-29T05:49:39.775Z,2.74
2023-01-29T05:51:13.025Z,2.73
2023-01-29T05:52:47.475Z,2.73
2023-01-29T05:54:20.666Z,2.75
2023-01-29T05:55:53.814Z,2.75
2023-01-29T05:57:26.928Z,2.80
2023-01-29T05:58:59.994Z,2.80
2023-01-29T06:00:33.217Z,2.81
2023-01-29T06:02:06.461Z,2.83
2023-01-29T06:03:38.809Z,2.87
2023-01-29T06:05:12.068Z,2.84
2023-01-29T06:06:45.345Z,2.83
2023-01-29T06:08:19.870Z,2.81
2023-01-29T06:09:53.279Z,2.81
2023-01-29T06:11:26.815Z,2.80
2023-01-29T06:13:00.128Z,2.81
2023-01-29T06:14:33.335Z,2.83
2023-01-29T06:16:07.390Z,2.87
2023-01-29T06:17:40.514Z,2.88
2023-01-29T06:19:13.849Z,2.78
2023-01-29T06:20:47.032Z,2.71
2023-01-29T06:22:20.253Z,2.70
2023-01-29T06:23:55.308Z,2.72
2023-01-29T06:25:28.729Z,2.72
2023-01-29T06:27:02.112Z,2.76
2023-01-29T06:28:35.648Z,2.78
2023-01-29T06:30:09.925Z,2.78
2023-01-29T06:31:43.354Z,2.78
2023-01-29T06:33:16.501Z,2.75
2023-01-29T06:34:49.898Z,2.72
2023-01-29T06:36:23.068Z,2.70
2023-01-29T06:37:57.486Z,2.70
2023-01-29T06:39:32.109Z,2.75
2023-01-29T06:41:10.576Z,2.80
2023-01-29T06:42:46.067Z,2.82
2023-01-29T06:44:19.698Z,2.84
2023-01-29T06:45:54.747Z,2.86
2023-01-29T06:47:29.049Z,2.89
2023-01-29T06:49:02.225Z,2.89
2023-01-29T06:50:35.405Z,2.91
2023-01-29T06:52:08.544Z,2.88
2023-01-29T06:53:44.006Z,2.96
2023-01-29T06:55:19.894Z,3.02
2023-01-29T06:56:53.701Z,3.04
2023-01-29T06:58:26.822Z,3.04
2023-01-29T06:59:59.691Z,2.99
2023-01-29T07:01:36.418Z,3.04
2023-01-29T07:03:11.739Z,3.03
2023-01-29T07:04:44.972Z,3.04
2023-01-29T07:06:18.318Z,3.04
2023-01-29T07:07:51.578Z,3.00
2023-01-29T07:09:24.795Z,3.07
2023-01-29T07:11:02.071Z,3.12
2023-01-29T07:12:35.334Z,3.16
2023-01-29T07:14:08.720Z,3.17
2023-01-29T07:15:46.544Z,3.19
2023-01-29T07:17:20.666Z,3.18
2023-01-29T07:18:54.047Z,3.14
2023-01-29T07:20:28.398Z,3.17
2023-01-29T07:22:02.680Z,3.17
2023-01-29T07:23:36.678Z,3.22
2023-01-29T07:25:11.142Z,3.28
2023-01-29T07:26:45.752Z,3.34
2023-01-29T07:28:20.467Z,3.37
2023-01-29T07:29:53.691Z,3.39
2023-01-29T07:31:27.071Z,3.44
2023-01-29T07:33:03.117Z,3.42
2023-01-29T07:34:36.811Z,3.42
2023-01-29T07:36:10.853Z,3.37
2023-01-29T07:37:44.179Z,3.38
2023-01-29T07:39:17.414Z,3.42
2023-01-29T07:40:50.923Z,3.41
2023-01-29T07:42:25.572Z,3.41
2023-01-29T07:43:59.101Z,3.39
2023-01-29T07:45:35.314Z,3.36
2023-01-29T07:47:08.584Z,3.38
2023-01-29T07:48:41.831Z,3.43
2023-01-29T07:50:15.850Z,3.46
2023-01-29T07:51:49.187Z,3.46
2023-01-29T07:53:22.661Z,3.52
2023-01-29T07:54:55.850Z,3.55
2023-01-29T07:56:29.122Z,3.59
2023-01-29T07:58:04.572Z,3.62
2023-01-29T07:59:37.866Z,3.53
2023-01-29T08:01:11.162Z,3.59
2023-01-29T08:02:44.512Z,3.62
2023-01-29T08:04:17.750Z,3.66
2023-01-29T08:05:51.156Z,3.64
2023-01-29T08:07:24.318Z,3.66
2023-01-29T08:08:59.770Z,3.67
2023-01-29T08:10:33.068Z,3.70
2023-01-29T08:12:06.593Z,3.72
2023-01-29T08:13:41.188Z,3.70
2023-01-29T08:15:14.343Z,3.72
2023-01-29T08:16:47.597Z,3.69
2023-01-29T08:18:20.924Z,3.66
2023-01-29T08:19:54.204Z,3.66
2023-01-29T08:21:27.351Z,3.68
2023-01-29T08:23:01.722Z,3.62
2023-01-29T08:24:47.720Z,3.59
2023-01-29T08:26:28.489Z,3.67
2023-01-29T08:28:02.245Z,3.70
2023-01-29T08:29:37.295Z,3.66
2023-01-29T08:31:15.899Z,3.70
2023-01-29T08:32:49.087Z,3.68
2023-01-29T08:34:22.241Z,3.69
2023-01-29T08:35:55.450Z,3.73
2023-01-29T08:37:28.603Z,3.74
2023-01-29T08:39:01.736Z,3.72
2023-01-29T08:40:36.537Z,3.75
2023-01-29T08:42:09.737Z,3.75
2023-01-29T08:43:43.040Z,3.72
2023-01-29T08:45:17.897Z,3.70
2023-01-29T08:46:51.062Z,3.58
2023-01-29T08:48:25.511Z,3.63
2023-01-29T08:49:58.653Z,3.70
2023-01-29T08:51:31.963Z,3.72
2023-01-29T08:53:07.844Z,3.76
2023-01-29T08:54:40.979Z,3.82
2023-01-29T08:56:14.083Z,3.89
2023-01-29T08:57:47.517Z,3.95
2023-01-29T08:59:22.901Z,3.99
2023-01-29T09:00:57.478Z,4.01
2023-01-29T09:02:30.730Z,4.00
2023-01-29T09:04:03.843Z,4.00
2023-01-29T09:05:37.296Z,3.94
2023-01-29T09:07:10.495Z,3.97
2023-01-29T09:08:43.618Z,4.01
2023-01-29T09:10:17.588Z,4.02
2023-01-29T09:11:50.755Z,4.04
2023-01-29T09:13:25.165Z,4.04
2023-01-29T09:14:58.291Z,4.10
2023-01-29T09:16:32.886Z,4.09
2023-01-29T09:18:06.970Z,3.99
2023-01-29T09:19:40.394Z,4.01
2023-01-29T09:21:13.545Z,4.01
2023-01-29T09:22:47.212Z,4.15
2023-01-29T09:24:20.318Z,4.18
2023-01-29T09:25:53.481Z,4.19
2023-01-29T09:27:26.680Z,4.17
2023-01-29T09:29:04.771Z,4.11
2023-01-29T09:30:38.680Z,4.16
2023-01-29T09:32:19.794Z,4.16
2023-01-29T09:34:05.602Z,4.18
2023-01-29T09:35:41.344Z,4.21
2023-01-29T09:37:14.719Z,4.21
2023-01-29T09:38:48.377Z,4.20
2023-01-29T09:40:27.386Z,4.18
2023-01-29T09:42:11.579Z,4.15
2023-01-29T09:43:49.033Z,4.15
2023-01-29T09:45:25.777Z,4.15
2023-01-29T09:47:01.359Z,4.13
2023-01-29T09:48:38.127Z,4.12
2023-01-29T09:50:20.230Z,4.11
2023-01-29T09:51:59.546Z,4.01
2023-01-29T09:53:40.526Z,4.07
2023-01-29T09:55:21.534Z,4.09
2023-01-29T09:57:06.539Z,4.13
2023-01-29T09:58:42.260Z,4.17
2023-01-29T10:00:18.355Z,4.14
2023-01-29T10:02:01.193Z,4.11
2023-01-29T10:04:02.294Z,4.18
2023-01-29T10:05:55.354Z,4.22
2023-01-29T10:07:46.395Z,4.17
2023-01-29T10:10:00.645Z,4.21
2023-01-29T10:11:40.696Z,4.27
2023-01-29T10:13:21.742Z,4.26
2023-01-29T10:15:04.870Z,4.29
2023-01-29T10:16:51.469Z,4.23
2023-01-29T10:18:51.333Z,4.19
2023-01-29T10:20:52.527Z,4.06
2023-01-29T10:22:51.660Z,3.91
2023-01-29T10:24:34.643Z,3.88
2023-01-29T10:26:12.650Z,3.84
2023-01-29T10:27:50.961Z,3.91
2023-01-29T10:29:25.069Z,3.91
2023-01-29T10:31:05.117Z,3.91
2023-01-29T10:32:39.635Z,3.99
2023-01-29T10:34:16.141Z,4.03
2023-01-29T10:35:55.906Z,4.10
2023-01-29T10:37:38.326Z,4.12
2023-01-29T10:39:17.870Z,4.04
2023-01-29T10:40:57.840Z,4.08
2023-01-29T10:42:39.472Z,4.11
2023-01-29T10:44:26.037Z,4.13
2023-01-29T10:46:09.966Z,4.09
2023-01-29T10:48:04.343Z,4.05
2023-01-29T10:50:01.429Z,4.06
2023-01-29T10:51:56.544Z,4.04
2023-01-29T10:53:42.292Z,4.03
2023-01-29T10:55:27.982Z,4.13
2023-01-29T10:57:11.012Z,4.16
2023-01-29T10:58:50.532Z,4.13
2023-01-29T11:00:27.034Z,4.15
2023-01-29T11:02:00.663Z,4.22
2023-01-29T11:03:35.110Z,4.21
2023-01-29T11:05:20.705Z,4.23
2023-01-29T11:06:55.663Z,4.27
2023-01-29T11:08:35.789Z,4.35
2023-01-29T11:10:15.797Z,4.31
2023-01-29T11:11:52.102Z,4.29
2023-01-29T11:13:40.595Z,4.25
2023-01-29T11:15:20.464Z,4.25
2023-01-29T11:16:53.826Z,4.22
2023-01-29T11:18:27.444Z,4.26
2023-01-29T11:20:00.903Z,4.26
2023-01-29T11:21:34.081Z,4.24
2023-01-29T11:23:26.606Z,4.21
2023-01-29T11:25:14.071Z,4.20
2023-01-29T11:26:49.968Z,4.27
2023-01-29T11:28:37.707Z,4.28
2023-01-29T11:30:18.088Z,4.31
2023-01-29T11:31:51.666Z,4.30
2023-01-29T11:33:25.418Z,4.26
2023-01-29T11:35:04.068Z,4.25
2023-01-29T11:36:39.822Z,4.32
2023-01-29T11:38:22.792Z,4.34
2023-01-29T11:39:55.984Z,4.41
2023-01-29T11:41:29.164Z,4.36
2023-01-29T11:43:23.502Z,4.39
2023-01-29T11:44:56.783Z,4.39
2023-01-29T11:46:30.206Z,4.38
2023-01-29T11:48:03.939Z,4.36
2023-01-29T11:49:38.271Z,4.41
2023-01-29T11:51:14.487Z,4.37
2023-01-29T11:52:47.689Z,4.39
2023-01-29T11:54:26.932Z,4.45
2023-01-29T11:56:02.684Z,4.42
2023-01-29T11:57:38.880Z,4.41
2023-01-29T11:59:31.677Z,4.36
2023-01-29T12:01:06.899Z,4.29
2023-01-29T12:02:45.762Z,4.14
2023-01-29T12:04:23.416Z,4.12
2023-01-29T12:05:59.942Z,4.23
2023-01-29T12:07:34.237Z,4.19
2023-01-29T12:09:16.886Z,4.15
2023-01-29T12:10:51.882Z,4.26
2023-01-29T12:12:34.204Z,4.38
2023-01-29T12:14:28.054Z,4.41
2023-01-29T12:16:16.856Z,4.37
2023-01-29T12:17:57.568Z,4.40
2023-01-29T12:19:35.977Z,4.65
2023-01-29T12:21:16.043Z,4.65
2023-01-29T12:22:54.765Z,4.74
2023-01-29T12:24:35.856Z,4.61
2023-01-29T12:26:16.383Z,4.66
2023-01-29T12:27:56.103Z,4.64
2023-01-29T12:29:41.764Z,4.69
2023-01-29T12:31:31.124Z,4.75
2023-01-29T12:33:13.708Z,4.62
2023-01-29T12:34:52.480Z,4.70
2023-01-29T12:36:31.584Z,4.67
2023-01-29T12:38:11.253Z,4.63
2023-01-29T12:39:44.475Z,4.73
2023-01-29T12:41:35.061Z,4.79
2023-01-29T12:43:16.597Z,4.78
2023-01-29T12:44:54.508Z,4.77
2023-01-29T12:46:32.548Z,4.76
2023-01-29T12:48:09.843Z,4.56
2023-01-29T12:49:46.676Z,4.61
2023-01-29T12:51:24.680Z,4.57
2023-01-29T12:53:02.042Z,4.61
2023-01-29T12:54:40.968Z,4.62
2023-01-29T12:56:19.444Z,4.70
2023-01-29T12:57:58.595Z,4.70
2023-01-29T12:59:37.741Z,4.68
2023-01-29T13:01:18.310Z,4.76
2023-01-29T13:02:59.981Z,4.77
2023-01-29T13:04:40.326Z,4.66
2023-01-29T13:06:18.513Z,4.64
2023-01-29T13:07:58.174Z,4.63
2023-01-29T13:09:38.302Z,4.64
2023-01-29T13:11:18.079Z,4.60
2023-01-29T13:12:58.527Z,4.61
2023-01-29T13:14:41.942Z,4.55
2023-01-29T13:16:22.413Z,4.57
2023-01-29T13:18:00.216Z,4.56
2023-01-29T13:19:38.196Z,4.55
2023-01-29T13:21:17.280Z,4.53
2023-01-29T13:22:53.578Z,4.57
2023-01-29T13:24:32.696Z,4.61
2023-01-29T13:26:06.894Z,4.63
2023-01-29T13:27:40.704Z,4.66
2023-01-29T13:29:23.672Z,4.65
2023-01-29T13:31:18.475Z,4.70
2023-01-29T13:32:54.409Z,4.69
2023-01-29T13:34:31.813Z,4.65
2023-01-29T13:36:06.185Z,4.63
2023-01-29T13:37:48.611Z,4.55
2023-01-29T13:39:28.388Z,4.64
2023-01-29T13:41:05.635Z,4.75
2023-01-29T13:42:43.918Z,4.69
2023-01-29T13:44:24.859Z,4.74
2023-01-29T13:45:58.065Z,4.84
2023-01-29T13:47:33.374Z,4.92
2023-01-29T13:49:07.034Z,4.92
2023-01-29T13:50:44.325Z,4.92
2023-01-29T13:52:25.333Z,4.90
2023-01-29T13:54:02.144Z,4.95
2023-01-29T13:55:37.376Z,4.98
2023-01-29T13:57:35.544Z,5.01
2023-01-29T13:59:24.177Z,4.99
2023-01-29T14:01:01.156Z,4.91
2023-01-29T14:02:34.557Z,5.00
2023-01-29T14:04:25.695Z,5.00
2023-01-29T14:06:00.306Z,5.03
2023-01-29T14:07:50.219Z,5.00
2023-01-29T14:10:14.217Z,4.92
2023-01-29T14:11:49.679Z,4.91
2023-01-29T14:13:35.402Z,4.84
2023-01-29T14:15:32.057Z,4.81
2023-01-29T14:17:04.326Z,4.82
2023-01-29T14:18:46.104Z,4.82
2023-01-29T14:20:22.319Z,4.82
2023-01-29T14:21:56.056Z,4.87
2023-01-29T14:23:35.937Z,4.87
2023-01-29T14:25:17.948Z,4.82
2023-01-29T14:26:56.261Z,4.83
2023-01-29T14:28:32.376Z,4.81
2023-01-29T14:30:11.061Z,4.81
2023-01-29T14:31:50.574Z,4.83
2023-01-29T14:33:30.045Z,4.78
2023-01-29T14:35:05.530Z,4.82
2023-01-29T14:36:43.314Z,4.78
2023-01-29T14:38:16.692Z,4.84
2023-01-29T14:39:51.420Z,4.85
2023-01-29T14:41:28.376Z,4.91
2023-01-29T14:43:04.115Z,4.94
2023-01-29T14:45:12.564Z,4.94
2023-01-29T14:46:47.494Z,4.96
2023-01-29T14:48:38.816Z,4.92
2023-01-29T14:50:43.688Z,4.88
2023-01-29T14:52:18.587Z,4.88
2023-01-29T14:54:00.550Z,4.85
2023-01-29T14:55:40.938Z,4.80
2023-01-29T14:57:16.534Z,4.80
2023-01-29T14:58:55.992Z,4.82
2023-01-29T15:00:31.985Z,4.83
2023-01-29T15:02:18.104Z,4.82
2023-01-29T15:03:54.487Z,4.84
2023-01-29T15:05:32.710Z,4.85
2023-01-29T15:07:18.121Z,4.88
2023-01-29T15:08:58.612Z,4.80
2023-01-29T15:11:09.527Z,4.87
2023-01-29T15:12:49.663Z,4.80
2023-01-29T15:14:30.510Z,4.84
2023-01-29T15:16:10.854Z,4.88
2023-01-29T15:17:55.189Z,4.91
2023-01-29T15:19:33.153Z,4.93
2023-01-29T15:21:13.025Z,4.96
2023-01-29T15:22:46.417Z,4.97
2023-01-29T15:24:19.860Z,4.93
2023-01-29T15:25:55.359Z,4.94
2023-01-29T15:27:29.971Z,4.94
2023-01-29T15:29:04.849Z,4.93
2023-01-29T15:30:39.621Z,4.90
2023-01-29T15:32:32.671Z,4.84
2023-01-29T15:34:08.765Z,4.73
2023-01-29T15:35:43.784Z,4.71
2023-01-29T15:37:31.698Z,4.68
2023-01-29T15:39:16.826Z,4.68
2023-01-29T15:40:54.129Z,4.74
2023-01-29T15:42:29.672Z,4.77
2023-01-29T15:44:03.470Z,4.79
2023-01-29T15:45:41.963Z,4.77
2023-01-29T15:47:16.703Z,4.78
2023-01-29T15:48:51.602Z,4.70
2023-01-29T15:50:26.434Z,4.58
2023-01-29T15:52:02.531Z,4.51
2023-01-29T15:53:42.456Z,4.41
2023-01-29T15:55:17.796Z,4.34
2023-01-29T15:56:53.619Z,4.29
2023-01-29T15:58:33.020Z,4.25
2023-01-29T16:00:08.614Z,4.21
2023-01-29T16:01:45.076Z,4.20
2023-01-29T16:03:18.557Z,4.17
2023-01-29T16:04:51.928Z,4.19
2023-01-29T16:06:27.141Z,4.25
2023-01-29T16:08:02.247Z,4.28
2023-01-29T16:09:36.739Z,4.30
2023-01-29T16:11:11.062Z,4.34
2023-01-29T16:12:51.559Z,4.35
2023-01-29T16:14:27.011Z,4.35
2023-01-29T16:16:02.219Z,4.34
2023-01-29T16:17:36.467Z,4.30
2023-01-29T16:19:21.219Z,4.25
2023-01-29T16:20:56.210Z,4.21
2023-01-29T16:22:34.803Z,4.18
2023-01-29T16:24:12.245Z,4.17
2023-01-29T16:25:45.797Z,4.12
2023-01-29T16:27:19.478Z,4.09
2023-01-29T16:28:53.857Z,4.09
2023-01-29T16:30:29.146Z,4.04
2023-01-29T16:32:03.883Z,4.03
2023-01-29T16:33:48.410Z,4.04
2023-01-29T16:35:21.819Z,4.03
2023-01-29T16:36:56.589Z,3.98
2023-01-29T16:38:34.628Z,3.97
2023-01-29T16:40:17.561Z,3.93
2023-01-29T16:42:23.990Z,3.93
2023-01-29T16:43:59.642Z,3.93
2023-01-29T16:45:33.061Z,3.93
2023-01-29T16:47:15.053Z,3.90
2023-01-29T16:48:49.109Z,3.97
2023-01-29T16:50:36.062Z,3.97
2023-01-29T16:52:19.601Z,3.97
2023-01-29T16:54:04.069Z,4.03
2023-01-29T16:55:40.968Z,4.04
2023-01-29T16:57:17.868Z,4.00
2023-01-29T16:58:51.849Z,4.03
2023-01-29T17:00:27.833Z,4.00
2023-01-29T17:02:01.595Z,4.01
2023-01-29T17:03:37.281Z,3.95
2023-01-29T17:05:22.187Z,3.95
2023-01-29T17:06:58.605Z,4.00
2023-01-29T17:08:34.642Z,4.00
2023-01-29T17:10:18.556Z,3.95
2023-01-29T17:11:56.971Z,3.88
2023-01-29T17:13:36.018Z,3.88
2023-01-29T17:15:35.325Z,3.87
2023-01-29T17:17:15.866Z,3.85
2023-01-29T17:18:49.584Z,3.83
2023-01-29T17:20:23.811Z,3.82
2023-01-29T17:21:58.631Z,3.86
2023-01-29T17:23:32.258Z,3.90
2023-01-29T17:25:06.527Z,3.85
2023-01-29T17:26:42.000Z,3.86
2023-01-29T17:28:17.379Z,3.87
2023-01-29T17:29:52.714Z,3.90
2023-01-29T17:31:27.597Z,3.86
2023-01-29T17:33:03.201Z,3.81
2023-01-29T17:34:36.874Z,3.80
2023-01-29T17:36:13.541Z,3.83
2023-01-29T17:37:46.928Z,3.85
2023-01-29T17:39:23.603Z,3.81
2023-01-29T17:40:59.745Z,3.85
2023-01-29T17:42:34.445Z,3.83
2023-01-29T17:44:07.901Z,3.85
2023-01-29T17:45:43.055Z,3.84
2023-01-29T17:47:16.710Z,3.90
2023-01-29T17:48:50.713Z,3.87
2023-01-29T17:50:26.401Z,3.91
2023-01-29T17:51:59.949Z,3.93
2023-01-29T17:53:45.631Z,3.95
2023-01-29T17:55:21.708Z,3.97
2023-01-29T17:56:55.805Z,3.97
2023-01-29T17:58:30.537Z,3.99
2023-01-29T18:00:04.260Z,3.96
2023-01-29T18:01:43.187Z,3.91
2023-01-29T18:03:19.757Z,3.95
2023-01-29T18:04:53.023Z,3.95
2023-01-29T18:06:29.497Z,3.94
2023-01-29T18:08:03.524Z,3.95
2023-01-29T18:09:39.682Z,3.99
2023-01-29T18:11:14.253Z,3.97
2023-01-29T18:12:48.757Z,4.01
2023-01-29T18:14:28.246Z,3.92
2023-01-29T18:16:02.386Z,3.85
2023-01-29T18:17:35.806Z,3.76
2023-01-29T18:19:15.420Z,3.71
2023-01-29T18:20:49.170Z,3.73
2023-01-29T18:22:22.962Z,3.78
2023-01-29T18:23:59.052Z,3.84
2023-01-29T18:25:32.720Z,3.89
2023-01-29T18:27:06.397Z,3.96
2023-01-29T18:28:40.921Z,3.96
2023-01-29T18:30:16.652Z,4.00
2023-01-29T18:31:52.141Z,4.01
2023-01-29T18:33:26.934Z,4.00
2023-01-29T18:35:00.620Z,3.94
2023-01-29T18:36:33.943Z,3.93
2023-01-29T18:38:08.242Z,3.96
2023-01-29T18:39:41.687Z,3.93
2023-01-29T18:41:15.303Z,3.90
2023-01-29T18:42:48.948Z,3.84
2023-01-29T18:44:22.045Z,3.85
2023-01-29T18:46:00.396Z,3.85
2023-01-29T18:47:34.054Z,3.74
2023-01-29T18:49:07.535Z,3.67
2023-01-29T18:50:40.774Z,3.73
2023-01-29T18:52:14.359Z,3.71
2023-01-29T18:53:51.208Z,3.60
2023-01-29T18:55:26.747Z,3.57
2023-01-29T18:57:13.728Z,3.56
2023-01-29T18:58:58.602Z,3.52
2023-01-29T19:00:32.516Z,3.53
2023-01-29T19:02:07.242Z,3.58
2023-01-29T19:03:41.991Z,3.58
2023-01-29T19:05:17.465Z,3.63
2023-01-29T19:06:50.828Z,3.59
2023-01-29T19:08:24.096Z,3.52
2023-01-29T19:10:00.469Z,3.50
2023-01-29T19:11:34.494Z,3.47
2023-01-29T19:13:08.146Z,3.52
2023-01-29T19:14:41.590Z,3.50
2023-01-29T19:16:14.929Z,3.47
2023-01-29T19:17:50.121Z,3.52
2023-01-29T19:19:23.418Z,3.52
2023-01-29T19:20:59.452Z,3.54
2023-01-29T19:22:33.126Z,3.56
2023-01-29T19:24:10.464Z,3.64
2023-01-29T19:25:43.683Z,3.67
2023-01-29T19:57:33.962Z,3.74
2023-01-29T19:59:08.776Z,3.80
2023-01-29T20:00:42.155Z,3.82
2023-01-29T20:02:15.608Z,3.86
2023-01-29T20:03:50.383Z,3.91
2023-01-29T20:05:24.253Z,3.90
2023-01-29T20:06:57.453Z,3.92
2023-01-29T20:08:30.762Z,3.90
2023-01-29T20:10:04.418Z,3.88
2023-01-29T20:11:38.020Z,3.88
2023-01-29T20:13:11.252Z,3.90
2023-01-29T20:14:51.316Z,3.94
2023-01-29T20:16:25.678Z,3.96
2023-01-29T20:18:00.108Z,3.97
2023-01-29T20:19:35.353Z,3.93
2023-01-29T20:21:11.042Z,3.92
2023-01-29T20:22:44.965Z,3.91
2023-01-29T20:24:18.883Z,3.92
2023-01-29T20:25:52.498Z,3.85
2023-01-29T20:27:26.046Z,3.83
2023-01-29T20:28:59.475Z,3.83
2023-01-29T20:30:34.833Z,3.83
2023-01-29T20:32:09.409Z,3.81
2023-01-29T20:33:43.625Z,3.83
2023-01-29T20:35:17.190Z,3.79
2023-01-29T20:36:50.694Z,3.80
2023-01-29T20:38:26.097Z,3.76
2023-01-29T20:39:59.446Z,3.71
2023-01-29T20:41:33.349Z,3.73
2023-01-29T20:43:06.748Z,3.72
2023-01-29T20:44:40.160Z,3.74
2023-01-29T20:46:15.166Z,3.68
2023-01-29T20:47:48.890Z,3.60
2023-01-29T20:49:22.548Z,3.56
2023-01-29T20:50:56.025Z,3.46
2023-01-29T20:52:29.270Z,3.50
2023-01-29T20:54:02.920Z,3.51
2023-01-29T20:55:36.900Z,3.50
2023-01-29T20:57:10.511Z,3.53
2023-01-29T20:58:43.990Z,3.46
2023-01-29T21:00:18.501Z,3.44
2023-01-29T21:01:53.847Z,3.43
2023-01-29T21:03:27.257Z,3.47
2023-01-29T21:05:00.535Z,3.37
2023-01-29T21:06:34.196Z,3.39
2023-01-29T21:08:08.062Z,3.37
2023-01-29T21:09:42.370Z,3.23
2023-01-29T21:11:15.553Z,3.33
2023-01-29T21:12:48.914Z,3.37
2023-01-29T21:14:22.038Z,3.41
2023-01-29T21:15:55.740Z,3.36
2023-01-29T21:17:30.343Z,3.39
2023-01-29T21:19:03.784Z,3.35
2023-01-29T21:20:37.014Z,3.36
2023-01-29T21:22:10.294Z,3.38
2023-01-29T21:23:43.624Z,3.39
2023-01-29T21:25:19.567Z,3.40
2023-01-29T21:26:52.709Z,3.37
2023-01-29T21:28:25.997Z,3.40
2023-01-29T21:29:59.110Z,3.43
2023-01-29T21:31:32.413Z,3.42
2023-01-29T21:33:07.524Z,3.36
2023-01-29T21:34:41.426Z,3.36
2023-01-29T21:36:14.527Z,3.35
2023-01-29T21:37:47.825Z,3.31
2023-01-29T21:39:24.455Z,3.29
2023-01-29T21:41:01.176Z,3.28
2023-01-29T21:42:51.965Z,3.31
2023-01-29T21:44:25.113Z,3.28
2023-01-29T21:45:59.929Z,3.30
2023-01-29T21:47:33.119Z,3.28
2023-01-29T21:49:07.823Z,3.24
2023-01-29T21:50:41.016Z,3.24
2023-01-29T21:52:15.111Z,3.24
2023-01-29T21:53:48.208Z,3.25
2023-01-29T21:55:21.498Z,3.20
2023-01-29T21:56:54.588Z,3.23
2023-01-29T21:58:27.965Z,3.23
2023-01-29T22:00:01.098Z,3.24
2023-01-29T22:01:38.861Z,3.22
2023-01-29T22:03:12.120Z,3.22
2023-01-29T22:04:46.732Z,3.22
2023-01-29T22:06:19.991Z,3.25
2023-01-29T22:07:53.446Z,3.22
2023-01-29T22:09:26.644Z,3.23
2023-01-29T22:11:00.135Z,3.18